createdAt,value
2022-09-13T00:00:51.601Z,4.10
2022-09-13T00:03:18.613Z,3.80
2022-09-13T00:05:45.069Z,3.63
2022-09-13T00:08:12.147Z,3.90
2022-09-13T00:10:41.024Z,4.00
2022-09-13T00:13:09.006Z,4.40
2022-09-13T00:15:36.602Z,3.70
2022-09-13T00:18:03.096Z,4.17
2022-09-13T00:20:29.506Z,3.77
2022-09-13T00:22:55.937Z,3.70
2022-09-13T00:25:22.257Z,3.80
2022-09-13T00:27:48.620Z,3.87
2022-09-13T00:30:15.035Z,4.00
2022-09-13T00:32:41.603Z,3.97
2022-09-13T00:35:08.501Z,3.87
2022-09-13T00:37:35.240Z,4.60
2022-09-13T00:40:01.962Z,4.10
2022-09-13T00:42:32.623Z,4.10
2022-09-13T00:45:14.356Z,3.93
2022-09-13T00:47:53.022Z,3.50
2022-09-13T00:50:35.229Z,3.90
2022-09-13T00:53:07.802Z,4.20
2022-09-13T00:55:52.495Z,3.83
2022-09-13T00:58:25.298Z,4.20
2022-09-13T01:00:53.718Z,4.63
2022-09-13T01:03:24.187Z,3.70
2022-09-13T01:06:00.283Z,4.33
2022-09-13T01:08:29.300Z,4.37
2022-09-13T01:10:59.883Z,3.53
2022-09-13T01:13:32.190Z,4.63
2022-09-13T01:16:00.123Z,3.60
2022-09-13T01:18:26.683Z,4.13
2022-09-13T01:20:53.011Z,3.77
2022-09-13T01:23:38.127Z,4.30
2022-09-13T01:26:26.328Z,3.70
2022-09-13T01:29:06.259Z,4.30
2022-09-13T01:31:47.825Z,4.37
2022-09-13T01:34:34.056Z,4.40
2022-09-13T01:37:17.605Z,3.80
2022-09-13T01:40:18.327Z,4.53
2022-09-13T01:42:50.983Z,3.80
2022-09-13T01:45:37.055Z,4.13
2022-09-13T01:48:52.992Z,4.03
2022-09-13T01:51:27.909Z,4.50
2022-09-13T01:54:21.371Z,4.17
2022-09-13T01:57:16.333Z,4.20
2022-09-13T01:59:53.899Z,4.43
2022-09-13T02:02:33.671Z,4.60
2022-09-13T02:05:07.055Z,4.30
2022-09-13T02:07:40.875Z,4.30
2022-09-13T02:10:16.467Z,4.70
2022-09-13T02:12:44.293Z,4.53
2022-09-13T02:15:20.447Z,4.07
2022-09-13T02:18:01.281Z,4.23
2022-09-13T02:20:38.040Z,4.70
2022-09-13T02:23:12.025Z,4.43
2022-09-13T02:25:40.930Z,4.77
2022-09-13T02:28:13.206Z,4.63
2022-09-13T02:30:44.261Z,4.20
2022-09-13T02:33:16.775Z,4.17
2022-09-13T02:35:53.147Z,4.57
2022-09-13T02:38:33.774Z,3.97
2022-09-13T02:41:12.485Z,4.47
2022-09-13T02:43:46.375Z,4.27
2022-09-13T02:46:26.625Z,4.27
2022-09-13T02:49:14.732Z,4.70
2022-09-13T02:51:50.401Z,3.97
2022-09-13T02:54:27.815Z,4.03
2022-09-13T02:57:02.057Z,4.20
2022-09-13T02:59:28.575Z,4.40
2022-09-13T03:02:08.837Z,3.90
2022-09-13T03:04:35.582Z,4.03
2022-09-13T03:07:04.411Z,4.13
2022-09-13T03:09:31.923Z,3.87
2022-09-13T03:12:15.283Z,4.30
2022-09-13T03:15:11.675Z,4.20
2022-09-13T03:17:47.275Z,4.03
2022-09-13T03:20:19.189Z,4.07
2022-09-13T03:23:18.144Z,4.40
2022-09-13T03:26:03.368Z,3.90
2022-09-13T03:28:59.172Z,4.20
2022-09-13T03:31:32.774Z,4.60
2022-09-13T03:34:04.791Z,4.57
2022-09-13T03:36:42.049Z,4.27
2022-09-13T03:39:23.884Z,3.87
2022-09-13T03:41:57.223Z,4.23
2022-09-13T03:44:25.887Z,4.17
2022-09-13T03:46:57.608Z,3.60
2022-09-13T03:49:27.290Z,4.27
2022-09-13T03:51:54.900Z,3.77
2022-09-13T03:54:27.963Z,3.93
2022-09-13T03:57:23.982Z,4.37
2022-09-13T03:59:56.081Z,4.30
2022-09-13T04:02:25.372Z,4.63
2022-09-13T04:04:52.012Z,4.20
2022-09-13T04:07:20.913Z,4.37
2022-09-13T04:09:47.578Z,4.30
2022-09-13T04:12:15.789Z,4.40
2022-09-13T04:14:43.787Z,4.00
2022-09-13T04:17:10.914Z,4.23
2022-09-13T04:19:37.603Z,4.47
2022-09-13T04:22:04.314Z,4.40
2022-09-13T04:24:31.667Z,3.73
2022-09-13T04:26:58.906Z,4.40
2022-09-13T04:29:26.761Z,4.20
2022-09-13T04:31:55.454Z,4.20
2022-09-13T04:34:23.121Z,3.83
2022-09-13T04:36:52.155Z,4.47
2022-09-13T04:39:20.083Z,4.43
2022-09-13T04:41:48.177Z,4.70
2022-09-13T04:44:16.684Z,4.30
2022-09-13T04:46:46.258Z,3.90
2022-09-13T04:49:14.717Z,4.33
2022-09-13T04:51:41.559Z,4.13
2022-09-13T04:54:14.559Z,3.83
2022-09-13T04:56:42.710Z,4.00
2022-09-13T04:59:10.690Z,3.77
2022-09-13T05:01:38.131Z,3.67
2022-09-13T05:04:08.568Z,3.80
2022-09-13T05:06:35.352Z,3.80
2022-09-13T05:09:02.307Z,3.50
2022-09-13T05:11:29.735Z,3.67
2022-09-13T05:13:58.206Z,3.67
2022-09-13T05:16:27.042Z,3.60
2022-09-13T05:18:54.068Z,3.40
2022-09-13T05:21:20.704Z,3.67
2022-09-13T05:23:54.863Z,3.23
2022-09-13T05:26:22.819Z,3.80
2022-09-13T05:28:49.849Z,4.07
2022-09-13T05:31:24.636Z,3.67
2022-09-13T05:33:55.662Z,3.77
2022-09-13T05:36:22.053Z,3.77
2022-09-13T05:38:48.637Z,3.40
2022-09-13T05:41:15.017Z,4.07
2022-09-13T05:43:41.511Z,3.90
2022-09-13T05:46:11.507Z,3.83
2022-09-13T05:48:38.660Z,4.27
2022-09-13T05:51:07.810Z,3.93
2022-09-13T05:53:34.965Z,3.83
2022-09-13T05:56:02.027Z,4.10
2022-09-13T05:58:28.344Z,3.67
2022-09-13T06:00:56.085Z,3.80
2022-09-13T06:03:24.300Z,3.90
2022-09-13T06:05:55.326Z,3.73
2022-09-13T06:08:21.640Z,3.60
2022-09-13T06:10:59.123Z,2.97
2022-09-13T06:13:26.219Z,3.97
2022-09-13T06:15:54.364Z,3.97
2022-09-13T06:18:21.111Z,4.03
2022-09-13T06:20:47.691Z,4.23
2022-09-13T06:23:14.943Z,4.07
2022-09-13T06:25:42.299Z,4.03
2022-09-13T06:28:09.308Z,4.07
2022-09-13T06:30:36.099Z,3.77
2022-09-13T06:33:02.530Z,4.40
2022-09-13T06:35:28.843Z,3.83
2022-09-13T06:37:57.662Z,4.20
2022-09-13T06:40:25.543Z,4.30
2022-09-13T06:42:52.040Z,4.27
2022-09-13T06:45:18.797Z,4.10
2022-09-13T06:47:45.123Z,3.80
2022-09-13T06:50:11.703Z,4.00
2022-09-13T06:52:38.564Z,3.70
2022-09-13T06:55:07.549Z,3.50
2022-09-13T06:57:37.126Z,3.20
2022-09-13T07:00:04.168Z,3.10
2022-09-13T07:02:30.752Z,3.30
2022-09-13T07:04:57.085Z,3.27
2022-09-13T07:07:23.553Z,3.67
2022-09-13T07:09:49.892Z,3.53
2022-09-13T07:12:20.386Z,3.60
2022-09-13T07:14:46.948Z,3.93
2022-09-13T07:17:13.280Z,4.10
2022-09-13T07:19:40.454Z,4.03
2022-09-13T07:22:06.807Z,3.43
2022-09-13T07:24:33.137Z,3.87
2022-09-13T07:26:59.633Z,3.60
2022-09-13T07:29:26.111Z,3.70
2022-09-13T07:31:54.605Z,3.87
2022-09-13T07:34:23.622Z,3.30
2022-09-13T07:36:50.629Z,3.00
2022-09-13T07:39:22.039Z,3.17
2022-09-13T07:41:49.310Z,3.43
2022-09-13T07:44:15.787Z,3.10
2022-09-13T07:46:43.635Z,2.73
2022-09-13T07:49:12.768Z,2.90
2022-09-13T07:51:41.577Z,2.30
2022-09-13T07:54:12.581Z,2.93
2022-09-13T07:56:40.861Z,2.20
2022-09-13T07:59:12.061Z,2.20
2022-09-13T08:01:47.605Z,2.60
2022-09-13T08:04:17.954Z,2.60
2022-09-13T08:06:44.723Z,2.30
2022-09-13T08:09:11.326Z,2.63
2022-09-13T08:11:45.831Z,2.40
2022-09-13T08:14:15.577Z,2.67
2022-09-13T08:16:42.315Z,2.47
2022-09-13T08:19:12.439Z,3.40
2022-09-13T08:21:40.791Z,2.30
2022-09-13T08:24:15.522Z,2.37
2022-09-13T08:26:41.952Z,2.53
2022-09-13T08:29:08.324Z,2.40
2022-09-13T08:31:35.317Z,2.87
2022-09-13T08:34:01.970Z,2.10
2022-09-13T08:36:29.542Z,2.33
2022-09-13T08:38:59.224Z,2.37
2022-09-13T08:41:25.638Z,2.60
2022-09-13T08:43:58.707Z,2.53
2022-09-13T08:46:35.218Z,2.33
2022-09-13T08:49:06.875Z,2.40
2022-09-13T08:51:47.933Z,2.57
2022-09-13T08:54:18.786Z,2.70
2022-09-13T08:56:47.775Z,2.23
2022-09-13T08:59:31.832Z,2.43
2022-09-13T09:02:28.867Z,2.30
2022-09-13T09:05:01.161Z,2.53
2022-09-13T09:07:33.301Z,2.30
2022-09-13T09:10:05.801Z,2.50
2022-09-13T09:12:35.112Z,2.33
2022-09-13T09:15:11.945Z,2.60
2022-09-13T09:17:53.381Z,2.30
2022-09-13T09:20:28.394Z,3.10
2022-09-13T09:22:56.291Z,2.60
2022-09-13T09:25:25.038Z,2.40
2022-09-13T09:27:53.550Z,2.10
2022-09-13T09:30:20.683Z,2.30
2022-09-13T09:32:57.752Z,2.27
2022-09-13T09:35:28.626Z,2.20
2022-09-13T09:38:31.563Z,2.40
2022-09-13T09:41:05.839Z,1.90
2022-09-13T09:43:39.680Z,2.17
2022-09-13T09:46:09.088Z,2.15
2022-09-13T09:48:43.152Z,1.87
2022-09-13T09:51:13.959Z,1.95
2022-09-13T09:53:45.885Z,2.20
2022-09-13T09:56:32.502Z,2.55
2022-09-13T09:58:59.175Z,2.20
2022-09-13T10:01:32.811Z,2.03
2022-09-13T10:04:11.139Z,3.05
2022-09-13T10:06:39.646Z,2.53
2022-09-13T10:09:18.346Z,2.33
2022-09-13T10:11:47.622Z,2.30
2022-09-13T10:14:39.143Z,2.42
2022-09-13T10:17:05.553Z,2.42
2022-09-13T10:19:33.035Z,2.42
2022-09-13T10:22:11.493Z,2.58
2022-09-13T10:24:38.710Z,3.28
2022-09-13T10:27:18.806Z,2.60
2022-09-13T10:29:49.019Z,2.60
2022-09-13T10:32:16.547Z,3.03
2022-09-13T10:34:45.506Z,3.20
2022-09-13T10:37:20.810Z,2.53
2022-09-13T10:40:00.303Z,3.05
2022-09-13T10:42:28.514Z,2.40
2022-09-13T10:45:02.607Z,2.20
2022-09-13T10:47:39.342Z,2.45
2022-09-13T10:50:19.307Z,2.20
2022-09-13T10:52:49.627Z,2.22
2022-09-13T10:55:15.931Z,2.78
2022-09-13T10:57:42.643Z,2.67
2022-09-13T11:00:12.427Z,2.40
2022-09-13T11:03:00.263Z,2.40
2022-09-13T11:05:40.886Z,2.15
2022-09-13T11:08:22.014Z,2.60
2022-09-13T11:11:07.693Z,2.65
2022-09-13T11:13:55.614Z,2.97
2022-09-13T11:16:37.868Z,3.20
2022-09-13T11:19:41.207Z,3.10
2022-09-13T11:22:25.235Z,3.08
2022-09-13T11:25:17.364Z,3.80
2022-09-13T11:28:18.600Z,3.17
2022-09-13T11:31:05.423Z,3.60
2022-09-13T11:33:52.067Z,3.10
2022-09-13T11:36:36.745Z,3.65
2022-09-13T11:39:10.004Z,3.50
2022-09-13T11:42:10.673Z,2.97
2022-09-13T11:44:46.051Z,3.10
2022-09-13T11:47:28.680Z,3.08
2022-09-13T11:50:03.356Z,3.20
2022-09-13T11:52:52.828Z,3.42
2022-09-13T11:55:27.576Z,2.92
2022-09-13T11:57:58.558Z,3.10
2022-09-13T12:00:34.735Z,3.03
2022-09-13T12:03:10.496Z,3.13
2022-09-13T12:05:44.572Z,2.95
2022-09-13T12:08:19.279Z,2.83
2022-09-13T12:11:03.612Z,3.05
2022-09-13T12:13:42.373Z,2.90
2022-09-13T12:16:13.050Z,3.10
2022-09-13T12:18:44.572Z,2.65
2022-09-13T12:21:23.345Z,2.92
2022-09-13T12:23:53.489Z,3.33
2022-09-13T12:26:49.008Z,3.70
2022-09-13T12:29:27.867Z,2.40
2022-09-13T12:32:00.263Z,2.88
2022-09-13T12:34:38.230Z,2.70
2022-09-13T12:37:28.805Z,2.88
2022-09-13T12:40:37.832Z,2.60
2022-09-13T12:43:35.120Z,2.50
2022-09-13T12:46:10.753Z,2.70
2022-09-13T12:49:06.691Z,2.50
2022-09-13T12:51:45.989Z,2.53
2022-09-13T12:54:27.375Z,2.28
2022-09-13T12:57:08.947Z,2.17
2022-09-13T12:59:55.203Z,2.40
2022-09-13T13:02:34.725Z,1.80
2022-09-13T13:05:19.927Z,2.25
2022-09-13T13:07:53.260Z,1.85
2022-09-13T13:10:30.700Z,2.28
2022-09-13T13:13:10.879Z,2.20
2022-09-13T13:15:37.291Z,2.00
2022-09-13T13:18:36.247Z,1.95
2022-09-13T13:21:02.774Z,1.70
2022-09-13T13:23:35.301Z,1.80
2022-09-13T13:26:07.942Z,1.80
2022-09-13T13:28:43.315Z,1.80
2022-09-13T13:31:25.129Z,2.15
2022-09-13T13:33:53.208Z,1.70
2022-09-13T13:36:34.712Z,1.63
2022-09-13T13:39:02.334Z,1.55
2022-09-13T13:41:40.562Z,1.90
2022-09-13T13:44:17.647Z,1.80
2022-09-13T13:46:44.657Z,1.92
2022-09-13T13:49:29.796Z,1.60
2022-09-13T13:52:11.904Z,1.60
2022-09-13T13:54:58.506Z,2.25
2022-09-13T13:57:52.401Z,1.88
2022-09-13T14:00:23.412Z,1.70
2022-09-13T14:02:49.706Z,2.15
2022-09-13T14:05:22.182Z,2.00
2022-09-13T14:08:26.176Z,1.80
2022-09-13T14:11:03.102Z,1.88
2022-09-13T14:13:41.230Z,1.70
2022-09-13T14:16:37.686Z,1.60
2022-09-13T14:19:21.246Z,2.03
2022-09-13T14:22:05.870Z,2.05
2022-09-13T14:24:42.183Z,2.00
2022-09-13T14:27:22.229Z,2.25
2022-09-13T14:29:52.195Z,1.98
2022-09-13T14:32:22.480Z,1.65
2022-09-13T14:34:58.747Z,1.60
2022-09-13T14:37:29.727Z,1.60
2022-09-13T14:40:02.543Z,1.58
2022-09-13T14:42:39.521Z,1.50
2022-09-13T14:45:06.456Z,2.30
2022-09-13T14:47:45.888Z,1.50
2022-09-13T14:50:19.514Z,2.00
2022-09-13T14:52:51.368Z,1.63
2022-09-13T14:55:24.082Z,1.55
2022-09-13T14:57:58.492Z,1.80
2022-09-13T15:00:26.239Z,1.92
2022-09-13T15:03:00.194Z,1.50
2022-09-13T15:05:30.828Z,1.80
2022-09-13T15:07:57.215Z,1.83
2022-09-13T15:10:26.333Z,1.90
2022-09-13T15:12:58.770Z,1.65
2022-09-13T15:15:31.549Z,1.63
2022-09-13T15:18:04.685Z,2.00
2022-09-13T15:20:45.364Z,1.67
2022-09-13T15:23:16.149Z,1.70
2022-09-13T15:25:51.165Z,1.70
2022-09-13T15:28:26.978Z,1.73
2022-09-13T15:30:55.469Z,1.80
2022-09-13T15:33:31.223Z,1.77
2022-09-13T15:36:33.762Z,1.45
2022-09-13T15:39:17.021Z,1.40
2022-09-13T15:41:55.392Z,1.45
2022-09-13T15:44:22.653Z,1.40
2022-09-13T15:46:54.503Z,1.63
2022-09-13T15:49:23.654Z,2.00
2022-09-13T15:51:55.979Z,1.70
2022-09-13T15:54:25.303Z,1.98
2022-09-13T15:56:52.867Z,1.77
2022-09-13T15:59:21.887Z,1.73
2022-09-13T16:01:50.248Z,1.35
2022-09-13T16:04:17.382Z,1.88
2022-09-13T16:06:44.429Z,1.90
2022-09-13T16:09:22.582Z,1.40
2022-09-13T16:11:50.506Z,1.77
2022-09-13T16:14:18.330Z,1.95
2022-09-13T16:16:46.127Z,1.80
2022-09-13T16:19:15.784Z,1.70
2022-09-13T16:21:42.171Z,1.65
2022-09-13T16:24:08.624Z,1.83
2022-09-13T16:26:35.482Z,1.80
2022-09-13T16:29:02.209Z,1.90
2022-09-13T16:31:28.823Z,2.05
2022-09-13T16:33:55.560Z,1.70
2022-09-13T16:36:21.905Z,1.73
2022-09-13T16:38:48.340Z,2.25
2022-09-13T16:41:15.007Z,2.28
2022-09-13T16:43:41.386Z,2.10
2022-09-13T16:46:09.850Z,2.45
2022-09-13T16:48:36.813Z,2.45
2022-09-13T16:51:04.882Z,1.95
2022-09-13T16:53:35.876Z,2.30
2022-09-13T16:56:10.694Z,1.88
2022-09-13T16:58:42.093Z,2.30
2022-09-13T17:01:10.949Z,2.67
2022-09-13T17:03:38.373Z,2.25
2022-09-13T17:06:07.363Z,1.98
2022-09-13T17:08:34.985Z,2.33
2022-09-13T17:11:09.342Z,2.28
2022-09-13T17:13:37.194Z,2.20
2022-09-13T17:16:05.916Z,2.70
2022-09-13T17:18:33.780Z,2.30
2022-09-13T17:21:00.694Z,2.22
2022-09-13T17:23:27.206Z,3.20
2022-09-13T17:25:53.704Z,2.38
2022-09-13T17:28:20.139Z,2.40
2022-09-13T17:30:46.785Z,2.70
2022-09-13T17:33:13.479Z,2.47
2022-09-13T17:35:40.027Z,2.60
2022-09-13T17:38:06.587Z,2.90
2022-09-13T17:40:33.127Z,2.65
2022-09-13T17:42:59.608Z,2.40
2022-09-13T17:45:26.250Z,2.75
2022-09-13T17:47:53.906Z,2.67
2022-09-13T17:50:20.885Z,2.67
2022-09-13T17:52:47.274Z,2.88
2022-09-13T17:55:13.656Z,2.50
2022-09-13T17:57:40.348Z,2.80
2022-09-13T18:00:12.937Z,2.80
2022-09-13T18:02:39.352Z,2.95
2022-09-13T18:05:09.513Z,3.53
2022-09-13T18:07:38.175Z,3.17
2022-09-13T18:10:16.068Z,3.60
2022-09-13T18:12:52.099Z,3.50
2022-09-13T18:15:18.472Z,3.05
2022-09-13T18:17:44.814Z,2.75
2022-09-13T18:20:11.181Z,3.10
2022-09-13T18:22:37.504Z,3.03
2022-09-13T18:25:04.210Z,2.92
2022-09-13T18:27:30.645Z,3.20
2022-09-13T18:29:57.104Z,3.13
2022-09-13T18:32:23.406Z,3.40
2022-09-13T18:34:49.738Z,3.20
2022-09-13T18:37:17.156Z,3.25
2022-09-13T18:39:43.478Z,3.15
2022-09-13T18:42:09.951Z,2.95
2022-09-13T18:44:36.259Z,3.13
2022-09-13T18:47:05.103Z,3.40
2022-09-13T18:49:31.539Z,3.53
2022-09-13T18:51:58.036Z,3.42
2022-09-13T18:54:24.382Z,3.60
2022-09-13T18:56:50.786Z,3.40
2022-09-13T18:59:17.159Z,4.10
2022-09-13T19:01:45.174Z,4.15
2022-09-13T19:04:14.971Z,3.80
2022-09-13T19:06:43.829Z,3.90
2022-09-13T19:09:10.991Z,3.90
2022-09-13T19:11:48.956Z,3.80
2022-09-13T19:14:23.037Z,4.20
2022-09-13T19:16:50.421Z,4.37
2022-09-13T19:19:16.843Z,4.33
2022-09-13T19:21:43.436Z,4.27
2022-09-13T19:24:17.794Z,4.47
2022-09-13T19:26:46.971Z,4.80
2022-09-13T19:29:15.437Z,5.43
2022-09-13T19:31:44.384Z,4.80
2022-09-13T19:34:11.544Z,4.80
2022-09-13T19:36:39.492Z,4.90
2022-09-13T19:39:07.235Z,5.70
2022-09-13T19:41:35.019Z,6.07
2022-09-13T19:44:02.122Z,5.60
2022-09-13T19:46:31.509Z,6.07
2022-09-13T19:48:59.794Z,6.10
2022-09-13T19:51:28.975Z,6.30
2022-09-13T19:53:58.009Z,6.70
2022-09-13T19:56:30.282Z,6.40
2022-09-13T19:58:57.713Z,7.00
2022-09-13T20:01:26.951Z,6.03
2022-09-13T20:03:56.009Z,6.47
2022-09-13T20:06:23.980Z,6.40
2022-09-13T20:08:50.950Z,6.63
2022-09-13T20:11:18.610Z,6.97
2022-09-13T20:13:45.691Z,6.97
2022-09-13T20:16:23.890Z,6.43
2022-09-13T20:18:51.178Z,7.17
2022-09-13T20:21:18.235Z,6.23
2022-09-13T20:23:45.723Z,6.07
2022-09-13T20:26:25.780Z,6.43
2022-09-13T20:28:57.642Z,7.13
2022-09-13T20:31:24.360Z,7.50
2022-09-13T20:33:58.494Z,7.17
2022-09-13T20:36:26.362Z,7.10
2022-09-13T20:38:55.193Z,7.00
2022-09-13T20:41:23.910Z,6.60
2022-09-13T20:43:50.806Z,7.80
2022-09-13T20:46:18.924Z,7.40
2022-09-13T20:48:45.771Z,8.03
2022-09-13T20:51:16.265Z,8.23
2022-09-13T20:53:43.103Z,7.67
2022-09-13T20:56:15.257Z,8.03
2022-09-13T20:58:42.835Z,7.60
2022-09-13T21:01:19.987Z,7.70
2022-09-13T21:03:48.191Z,7.47
2022-09-13T21:06:15.223Z,7.80
2022-09-13T21:08:42.801Z,7.30
2022-09-13T21:11:15.327Z,7.30
2022-09-13T21:13:49.158Z,7.27
2022-09-13T21:16:18.314Z,7.30
2022-09-13T21:18:45.581Z,7.93
2022-09-13T21:21:19.817Z,8.03
2022-09-13T21:23:47.705Z,8.00
2022-09-13T21:26:21.811Z,7.50
2022-09-13T21:28:48.771Z,7.63
2022-09-13T21:31:25.109Z,8.27
2022-09-13T21:33:56.748Z,8.70
2022-09-13T21:36:24.341Z,8.90
2022-09-13T21:38:54.198Z,10.10
2022-09-13T21:41:21.513Z,9.70
2022-09-13T21:43:48.041Z,9.87
2022-09-13T21:46:17.329Z,9.47
2022-09-13T21:48:51.731Z,9.50
2022-09-13T21:51:24.010Z,10.10
2022-09-13T21:53:57.667Z,10.67
2022-09-13T21:56:26.779Z,10.50
2022-09-13T21:58:58.571Z,10.10
2022-09-13T22:01:27.253Z,10.60
2022-09-13T22:03:54.135Z,10.33
2022-09-13T22:06:22.250Z,10.63
2022-09-13T22:08:54.603Z,10.33
2022-09-13T22:11:23.880Z,10.37
2022-09-13T22:13:51.171Z,10.53
2022-09-13T22:16:22.018Z,10.20
2022-09-13T22:18:57.379Z,11.10
2022-09-13T22:21:27.200Z,11.80
2022-09-13T22:23:54.000Z,12.20
2022-09-13T22:26:26.039Z,12.07
2022-09-13T22:28:53.926Z,12.30
2022-09-13T22:31:22.642Z,13.03
2022-09-13T22:33:50.384Z,14.03
2022-09-13T22:36:18.584Z,13.33
2022-09-13T22:38:47.265Z,13.67
2022-09-13T22:41:22.619Z,13.07
2022-09-13T22:43:49.146Z,13.10
2022-09-13T22:46:21.449Z,13.57
2022-09-13T22:48:48.531Z,12.93
2022-09-13T22:51:17.036Z,13.67
2022-09-13T22:53:46.303Z,12.97
2022-09-13T22:56:16.731Z,12.73
2022-09-13T22:58:44.096Z,12.77
2022-09-13T23:01:14.463Z,11.80
2022-09-13T23:03:43.239Z,12.77
2022-09-13T23:06:10.908Z,12.87
2022-09-13T23:08:38.307Z,12.07
2022-09-13T23:11:23.198Z,11.47
2022-09-13T23:13:55.003Z,11.33
2022-09-13T23:16:24.618Z,10.63
2022-09-13T23:18:51.894Z,10.87
2022-09-13T23:21:20.294Z,11.17
2022-09-13T23:23:47.460Z,11.70
2022-09-13T23:26:17.524Z,11.07
2022-09-13T23:28:46.293Z,10.97
2022-09-13T23:31:15.852Z,11.30
2022-09-13T23:33:47.239Z,12.70
2022-09-13T23:36:17.165Z,11.83
2022-09-13T23:38:48.932Z,12.07
2022-09-13T23:41:16.295Z,12.33
2022-09-13T23:43:42.712Z,13.90
2022-09-13T23:46:09.334Z,13.93
2022-09-13T23:48:35.767Z,14.77
2022-09-13T23:51:10.510Z,14.23
2022-09-13T23:53:37.521Z,14.13
2022-09-13T23:56:05.170Z,14.47
2022-09-13T23:58:32.308Z,14.90
